Time;durP1;ratioP1;P1;durP2;ratioP2;P2;SDS_P1;SDS_P2;PMS_P1;PMS_P2;Temp;Humidity;BMP_temperature;BMP_pressure;BME280_temperature;BME280_humidity;BME280_pressure;Samples;Min_cycle;Max_cycle;Signal;HPM_P1;HPM_P2
2021/10/26 00:00:48;;;;;;;;;12.33;12.00;;;;;14.89;68.03;101512.94;2089137;28;47078;-54
2021/10/26 00:01:49;;;;;;;;;12.00;12.00;;;;;14.88;67.95;101508.50;2085670;28;46861;-54
2021/10/26 00:02:49;;;;;;;;;10.00;10.00;;;;;14.88;68.17;101504.97;2091944;28;48213;-54
2021/10/26 00:03:50;;;;;;;;;11.00;11.00;;;;;14.88;68.41;101511.19;2082478;28;48739;-54
2021/10/26 00:04:51;;;;;;;;;11.75;10.75;;;;;14.87;68.42;101520.13;2082994;28;48152;-54
2021/10/26 00:05:51;;;;;;;;;11.67;9.00;;;;;14.86;68.20;101518.31;2082598;28;48410;-55
2021/10/26 00:06:52;;;;;;;;;11.00;10.00;;;;;14.86;68.34;101514.78;2082902;28;47438;-53
2021/10/26 00:07:52;;;;;;;;;10.00;10.00;;;;;14.85;68.21;101521.94;2082572;28;47627;-53
2021/10/26 00:08:55;;;;;;;;;13.00;12.00;;;;;14.84;68.17;101516.63;2082955;28;48545;-56
2021/10/26 00:09:55;;;;;;;;;10.00;10.00;;;;;14.83;67.89;101514.88;2091474;28;48141;-54
2021/10/26 00:10:56;;;;;;;;;11.67;10.00;;;;;14.83;68.18;101513.06;2091720;28;47329;-54
2021/10/26 00:11:56;;;;;;;;;12.33;10.33;;;;;14.81;67.85;101514.03;2091458;28;47047;-53
2021/10/26 00:12:56;;;;;;;;;10.67;10.00;;;;;14.81;67.86;101514.03;2092024;28;47351;-55
2021/10/26 00:13:57;;;;;;;;;9.67;9.67;;;;;14.79;68.27;101508.75;2091327;28;47172;-55
2021/10/26 00:14:58;;;;;;;;;9.33;9.00;;;;;14.80;68.33;101517.63;2091910;28;45499;-55
2021/10/26 00:15:58;;;;;;;;;6.75;6.75;;;;;14.79;68.21;101518.56;2091169;28;48057;-53
2021/10/26 00:17:00;;;;;;;;;10.00;10.00;;;;;14.79;68.27;101515.88;2094383;28;48640;-54
2021/10/26 00:18:01;;;;;;;;;10.75;10.75;;;;;14.78;68.24;101515.00;2086348;28;47557;-54
2021/10/26 00:19:02;;;;;;;;;8.00;8.00;;;;;14.77;68.25;101517.72;2094200;28;46988;-54
2021/10/26 00:20:05;;;;;;;;;9.00;9.00;;;;;14.77;67.83;101510.59;2082469;28;47231;-55
2021/10/26 00:21:05;;;;;;;;;12.75;11.50;;;;;14.77;68.44;101512.38;2081219;28;47559;-54
2021/10/26 00:22:06;;;;;;;;;13.00;13.00;;;;;14.76;68.31;101516.84;2093043;28;48267;-51
2021/10/26 00:23:07;;;;;;;;;12.67;12.67;;;;;14.76;67.97;101522.19;2085237;28;47096;-53
2021/10/26 00:24:07;;;;;;;;;10.33;10.33;;;;;14.75;68.06;101515.09;2091863;28;47448;-54
2021/10/26 00:25:08;;;;;;;;;11.33;10.67;;;;;14.76;68.42;101519.53;2091245;28;46169;-53
2021/10/26 00:26:09;;;;;;;;;12.00;10.25;;;;;14.75;67.93;101515.09;2091680;28;48622;-53
2021/10/26 00:27:10;;;;;;;;;11.00;11.00;;;;;14.75;68.26;101520.44;2091402;28;47232;-52
2021/10/26 00:28:10;;;;;;;;;14.00;13.00;;;;;14.76;67.76;101523.97;2091562;28;48570;-53
2021/10/26 00:29:11;;;;;;;;;22.25;22.25;;;;;14.75;67.97;101517.75;2091395;28;47512;-52
2021/10/26 00:30:12;;;;;;;;;20.25;18.25;;;;;14.75;68.31;101520.44;2091529;28;48550;-53
2021/10/26 00:31:12;;;;;;;;;24.50;24.50;;;;;14.76;67.81;101518.66;2090924;28;47508;-53
2021/10/26 00:32:12;;;;;;;;;21.50;20.50;;;;;14.76;67.97;101526.66;2082523;28;46348;-53
2021/10/26 00:33:13;;;;;;;;;20.33;17.67;;;;;14.76;68.28;101519.53;2082231;28;47422;-53
2021/10/26 00:34:13;;;;;;;;;14.67;13.67;;;;;14.75;67.89;101520.44;2067378;28;48332;-52
2021/10/26 00:35:14;;;;;;;;;13.67;13.67;;;;;14.73;67.93;101528.47;2075979;28;46853;-52
2021/10/26 00:36:14;;;;;;;;;14.67;13.67;;;;;14.74;68.15;101526.69;2091546;28;48175;-54
2021/10/26 00:37:15;;;;;;;;;12.00;12.00;;;;;14.73;68.02;101532.94;2091293;28;48261;-53
2021/10/26 00:38:16;;;;;;;;;13.00;13.00;;;;;14.72;68.24;101525.84;2091395;28;47207;-53
2021/10/26 00:39:16;;;;;;;;;11.00;11.00;;;;;14.72;67.98;101528.50;2091323;28;47367;-53
2021/10/26 00:40:16;;;;;;;;;12.00;10.33;;;;;14.72;68.03;101533.84;2091571;28;47312;-53
2021/10/26 00:41:18;;;;;;;;;11.33;11.00;;;;;14.70;67.71;101527.69;2091023;28;47073;-52
2021/10/26 00:42:18;;;;;;;;;10.75;10.00;;;;;14.71;67.81;101532.09;2091580;28;47249;-52
2021/10/26 00:43:19;;;;;;;;;12.67;12.00;;;;;14.70;67.73;101533.03;2090993;28;45454;-50
2021/10/26 00:44:20;;;;;;;;;11.00;11.00;;;;;14.68;67.76;101543.75;2082544;28;48111;-51
2021/10/26 00:45:21;;;;;;;;;6.00;6.00;;;;;14.68;68.01;101533.06;2082394;28;47554;-52
2021/10/26 00:46:29;;;;;;;;;10.00;9.25;;;;;14.68;67.81;101543.75;2089612;28;45703;-52
2021/10/26 00:47:29;;;;;;;;;5.75;5.25;;;;;14.67;67.66;101541.13;2087223;28;47327;-53
2021/10/26 00:48:30;;;;;;;;;9.00;8.33;;;;;14.66;67.79;101526.88;2082761;28;48273;-53
2021/10/26 00:49:31;;;;;;;;;8.67;8.33;;;;;14.66;67.78;101536.69;2074002;28;47230;-52
2021/10/26 00:50:31;;;;;;;;;8.00;7.00;;;;;14.66;67.59;101531.34;2068916;28;47345;-53
2021/10/26 00:51:32;;;;;;;;;6.67;6.67;;;;;14.65;68.04;101534.94;2081555;28;47539;-54
2021/10/26 00:52:33;;;;;;;;;10.00;9.00;;;;;14.64;68.13;101544.75;2091253;28;48214;-54
2021/10/26 00:53:33;;;;;;;;;10.00;9.00;;;;;14.64;67.77;101536.75;2091141;28;47190;-52
2021/10/26 00:54:34;;;;;;;;;12.33;9.00;;;;;14.63;67.94;101542.13;2091352;28;47530;-52
2021/10/26 00:55:34;;;;;;;;;9.00;9.00;;;;;14.63;67.82;101548.34;2082332;28;48112;-53
2021/10/26 00:56:35;;;;;;;;;7.00;7.00;;;;;14.63;67.62;101539.44;2082564;28;48246;-52
2021/10/26 00:57:36;;;;;;;;;7.67;7.67;;;;;14.61;67.66;101542.16;2091330;28;47182;-52
2021/10/26 00:58:36;;;;;;;;;8.00;7.67;;;;;14.62;67.68;101545.72;2091310;28;46802;-52
2021/10/26 00:59:37;;;;;;;;;7.00;5.67;;;;;14.62;67.78;101541.25;2082467;28;48226;-52
2021/10/26 01:00:38;;;;;;;;;9.33;9.33;;;;;14.61;67.97;101538.59;2082461;28;45117;-52
2021/10/26 01:01:38;;;;;;;;;9.00;8.67;;;;;14.61;67.88;101546.59;2090308;28;47126;-53
2021/10/26 01:02:42;;;;;;;;;8.00;7.00;;;;;14.60;67.75;101542.19;2090801;28;48377;-53
2021/10/26 01:03:43;;;;;;;;;10.25;8.75;;;;;14.61;67.42;101543.94;2087062;28;49347;-52
2021/10/26 01:04:43;;;;;;;;;6.33;6.33;;;;;14.59;67.63;101545.78;2082428;28;47964;-52
2021/10/26 01:05:44;;;;;;;;;7.67;7.00;;;;;14.59;67.61;101541.31;2074159;28;48228;-53
2021/10/26 01:06:46;;;;;;;;;5.50;5.50;;;;;14.58;67.79;101541.34;2073684;28;45432;-53
2021/10/26 01:07:47;;;;;;;;;7.75;7.75;;;;;14.57;68.13;101539.59;2075492;28;48548;-52
2021/10/26 01:08:48;;;;;;;;;7.00;7.00;;;;;14.57;67.56;101531.56;2075585;28;46945;-53
2021/10/26 01:09:49;;;;;;;;;6.75;5.50;;;;;14.56;67.86;101540.50;2073226;28;46963;-54
2021/10/26 01:10:51;;;;;;;;;5.67;5.00;;;;;14.56;67.54;101543.19;2078897;28;48206;-53
2021/10/26 01:11:52;;;;;;;;;8.50;7.00;;;;;14.56;67.80;101543.19;2092805;28;48241;-52
2021/10/26 01:12:52;;;;;;;;;7.00;7.00;;;;;14.55;67.63;101544.97;2092788;28;46729;-52
2021/10/26 01:13:54;;;;;;;;;9.00;9.00;;;;;14.55;67.55;101546.78;2083851;28;47634;-51
2021/10/26 01:14:56;;;;;;;;;6.75;6.00;;;;;14.54;67.59;101537.88;2084017;28;46498;-54
2021/10/26 01:15:57;;;;;;;;;8.25;7.50;;;;;14.54;68.00;101543.22;2092467;28;47212;-53
2021/10/26 01:17:09;;;;;;;;;8.00;8.00;;;;;14.54;67.83;101542.34;2095120;28;47189;-53
2021/10/26 01:18:10;;;;;;;;;6.50;6.50;;;;;14.54;67.88;101547.69;2089344;28;46524;-53
2021/10/26 01:19:11;;;;;;;;;7.67;7.33;;;;;14.52;67.49;101542.38;2093395;28;48260;-53
2021/10/26 01:20:11;;;;;;;;;7.33;7.33;;;;;14.51;67.51;101545.97;2092784;28;48137;-52
2021/10/26 01:21:12;;;;;;;;;7.00;7.00;;;;;14.52;67.35;101544.19;2088208;28;45187;-53
2021/10/26 01:22:14;;;;;;;;;5.00;5.00;;;;;14.51;67.45;101545.97;2093001;28;45589;-54
2021/10/26 01:23:14;;;;;;;;;7.00;5.25;;;;;14.50;67.86;101540.69;2087422;28;47236;-54
2021/10/26 01:24:15;;;;;;;;;5.00;5.00;;;;;14.51;67.85;101548.66;2093036;28;47330;-51
2021/10/26 01:25:15;;;;;;;;;6.33;4.00;;;;;14.50;67.77;101546.91;2083427;28;47330;-49
2021/10/26 01:26:16;;;;;;;;;11.00;9.00;;;;;14.50;67.81;101551.34;2073487;28;47451;-52
2021/10/26 01:27:18;;;;;;;;;8.00;8.00;;;;;14.49;67.40;101538.94;2083623;28;47391;-50
2021/10/26 01:28:19;;;;;;;;;4.75;4.75;;;;;14.49;67.57;101544.28;2092809;28;47367;-53
2021/10/26 01:29:19;;;;;;;;;6.33;5.33;;;;;14.48;67.55;101539.81;2092366;28;47386;-55
2021/10/26 01:30:31;;;;;;;;;7.33;7.00;;;;;14.47;67.66;101541.59;2092928;28;47360;-53
2021/10/26 01:31:31;;;;;;;;;6.25;6.25;;;;;14.47;67.35;101538.94;2092463;28;47546;-53
2021/10/26 01:32:32;;;;;;;;;5.67;5.67;;;;;14.46;67.63;101539.84;2083620;28;48342;-54
2021/10/26 01:33:33;;;;;;;;;5.00;5.00;;;;;14.46;67.90;101541.66;2083760;28;47240;-54
2021/10/26 01:34:33;;;;;;;;;5.00;5.00;;;;;14.46;67.83;101536.31;2095615;28;47086;-53
2021/10/26 01:35:35;;;;;;;;;6.00;5.00;;;;;14.45;67.66;101543.44;2097703;28;48139;-54
2021/10/26 01:36:36;;;;;;;;;6.50;6.50;;;;;14.44;67.50;101536.34;2092808;28;48318;-54
2021/10/26 01:37:36;;;;;;;;;6.67;5.67;;;;;14.43;67.43;101543.44;2092322;28;47196;-54
2021/10/26 01:38:37;;;;;;;;;5.67;5.67;;;;;14.42;67.64;101535.47;2092646;28;47433;-54
2021/10/26 01:39:39;;;;;;;;;5.67;5.67;;;;;14.41;67.38;101539.94;2092432;28;47871;-52
2021/10/26 01:40:40;;;;;;;;;6.25;5.25;;;;;14.42;67.64;101544.38;2092704;28;47572;-54
2021/10/26 01:41:40;;;;;;;;;7.00;7.00;;;;;14.41;67.46;101529.25;2092698;28;45413;-51
2021/10/26 01:42:41;;;;;;;;;7.00;6.00;;;;;14.40;67.48;101537.31;2092539;28;47304;-53
2021/10/26 01:43:41;;;;;;;;;5.67;5.67;;;;;14.40;67.46;101543.53;2092528;28;48371;-54
2021/10/26 01:44:42;;;;;;;;;7.33;7.33;;;;;14.40;67.67;101538.19;2092539;28;47267;-52
2021/10/26 01:45:43;;;;;;;;;5.00;5.00;;;;;14.40;67.65;101542.66;2090945;28;47437;-52
2021/10/26 01:46:43;;;;;;;;;5.67;5.67;;;;;14.39;67.43;101538.22;2083486;28;47274;-54
2021/10/26 01:47:44;;;;;;;;;5.33;5.00;;;;;14.39;67.59;101543.56;2083481;28;47313;-53
2021/10/26 01:48:44;;;;;;;;;4.75;4.75;;;;;14.39;67.70;101549.78;2083683;28;45414;-51
2021/10/26 01:49:45;;;;;;;;;7.33;6.00;;;;;14.38;67.39;101545.38;2083614;28;45328;-53
2021/10/26 01:50:46;;;;;;;;;6.67;6.33;;;;;14.38;67.46;101545.38;2091935;28;48265;-53
2021/10/26 01:51:47;;;;;;;;;7.33;6.00;;;;;14.37;67.28;101548.94;2091287;28;48094;-53
2021/10/26 01:52:49;;;;;;;;;4.25;4.25;;;;;14.37;67.60;101551.63;2092497;28;47492;-54
2021/10/26 01:53:49;;;;;;;;;7.25;6.25;;;;;14.38;67.38;101541.81;2092348;28;47250;-54
2021/10/26 01:54:50;;;;;;;;;6.33;6.00;;;;;14.37;67.32;101548.06;2092439;28;47207;-49
2021/10/26 01:55:50;;;;;;;;;6.00;6.00;;;;;14.36;67.61;101549.88;2092443;28;47347;-52
2021/10/26 01:56:51;;;;;;;;;6.67;6.67;;;;;14.36;67.25;101543.66;2092415;28;47446;-52
2021/10/26 01:57:52;;;;;;;;;7.00;6.00;;;;;14.35;67.30;101548.09;2092552;28;46399;-53
2021/10/26 01:58:52;;;;;;;;;6.50;6.00;;;;;14.35;67.16;101548.09;2083524;28;47706;-52
2021/10/26 01:59:55;;;;;;;;;9.00;7.00;;;;;14.34;67.33;101543.66;2075234;28;47244;-51
2021/10/26 02:00:56;;;;;;;;;5.25;5.25;;;;;14.34;67.51;101546.34;2083762;28;46825;-53
2021/10/26 02:01:56;;;;;;;;;5.00;5.00;;;;;14.35;67.29;101552.56;2092327;28;47978;-52
2021/10/26 02:02:57;;;;;;;;;6.67;6.67;;;;;14.34;67.71;101548.13;2083357;28;47362;-54
2021/10/26 02:03:57;;;;;;;;;6.33;6.33;;;;;14.33;67.64;101547.25;2083433;28;48232;-53
2021/10/26 02:04:58;;;;;;;;;6.33;6.33;;;;;14.34;67.32;101548.13;2086754;28;47176;-53
2021/10/26 02:05:59;;;;;;;;;8.67;8.00;;;;;14.35;67.64;101547.22;2092432;28;47211;-54
2021/10/26 02:06:59;;;;;;;;;7.25;7.25;;;;;14.33;67.38;101546.38;2092511;28;47738;-53
2021/10/26 02:08:00;;;;;;;;;7.00;7.00;;;;;14.33;67.62;101543.69;2092165;28;47121;-53
2021/10/26 02:09:00;;;;;;;;;5.67;5.67;;;;;14.32;67.51;101547.28;2092373;28;47162;-53
2021/10/26 02:10:01;;;;;;;;;4.67;4.67;;;;;14.32;67.60;101541.94;2092177;28;48391;-54
2021/10/26 02:11:01;;;;;;;;;5.00;5.00;;;;;14.32;67.66;101541.94;2092373;28;45524;-53
2021/10/26 02:12:04;;;;;;;;;7.33;5.00;;;;;14.32;67.51;101541.94;2092326;28;48311;-54
2021/10/26 02:13:05;;;;;;;;;5.50;5.00;;;;;14.31;67.34;101538.41;2092412;28;47352;-53
2021/10/26 02:14:06;;;;;;;;;6.00;6.00;;;;;14.31;67.67;101542.88;2092273;28;47351;-53
2021/10/26 02:15:07;;;;;;;;;6.25;6.25;;;;;14.31;67.05;101538.41;2092260;28;47237;-52
2021/10/26 02:16:08;;;;;;;;;4.50;4.50;;;;;14.31;67.50;101538.41;2092426;28;47703;-53
2021/10/26 02:17:09;;;;;;;;;5.00;4.33;;;;;14.31;67.46;101545.53;2089802;28;45126;-56
2021/10/26 02:18:09;;;;;;;;;4.67;4.67;;;;;14.30;67.34;101539.31;2087774;28;47113;-53
2021/10/26 02:19:10;;;;;;;;;3.67;3.67;;;;;14.30;67.41;101541.13;2084719;28;47321;-54
2021/10/26 02:20:11;;;;;;;;;5.50;5.25;;;;;14.28;67.40;101543.81;2075190;28;47217;-53
2021/10/26 02:21:12;;;;;;;;;4.67;4.67;;;;;14.29;67.05;101542.03;2082968;28;48149;-50
2021/10/26 02:22:12;;;;;;;;;5.67;5.67;;;;;14.27;67.26;101533.19;2092399;28;46232;-52
2021/10/26 02:23:13;;;;;;;;;5.00;5.00;;;;;14.27;67.46;101539.41;2087029;28;48267;-54
2021/10/26 02:24:13;;;;;;;;;3.00;3.00;;;;;14.27;67.22;101542.06;2092370;28;48144;-53
2021/10/26 02:25:14;;;;;;;;;4.67;4.67;;;;;14.26;67.23;101547.44;2092235;28;47450;-51
2021/10/26 02:26:14;;;;;;;;;5.00;5.00;;;;;14.25;67.07;101535.91;2092168;28;48471;-54
2021/10/26 02:27:15;;;;;;;;;4.00;4.00;;;;;14.25;67.47;101537.69;2082998;28;46512;-50
2021/10/26 02:28:15;;;;;;;;;4.33;4.33;;;;;14.25;67.14;101538.56;2083405;28;45020;-53
2021/10/26 02:29:16;;;;;;;;;4.00;4.00;;;;;14.24;67.46;101539.47;2091714;28;48153;-53
2021/10/26 02:30:17;;;;;;;;;6.33;6.33;;;;;14.24;67.14;101547.50;2091836;28;45382;-51
2021/10/26 02:31:17;;;;;;;;;4.33;4.33;;;;;14.24;67.40;101538.59;2078034;28;48242;-53
2021/10/26 02:32:18;;;;;;;;;4.00;4.00;;;;;14.24;67.34;101536.81;2083441;28;46149;-52
2021/10/26 02:33:18;;;;;;;;;3.33;3.33;;;;;14.24;67.42;101538.59;2090294;28;44909;-51
2021/10/26 02:34:19;;;;;;;;;4.33;4.00;;;;;14.23;67.51;101540.41;2093282;28;47445;-52
2021/10/26 02:35:20;;;;;;;;;3.00;3.00;;;;;14.23;67.09;101544.81;2083881;28;47655;-52
2021/10/26 02:36:20;;;;;;;;;3.00;3.00;;;;;14.23;67.52;101547.50;2083205;28;47273;-51
2021/10/26 02:37:21;;;;;;;;;4.00;4.00;;;;;14.22;67.36;101543.94;2092308;28;47288;-53
2021/10/26 02:38:21;;;;;;;;;4.00;4.00;;;;;14.22;67.16;101543.94;2089775;28;46547;-52
2021/10/26 02:39:22;;;;;;;;;2.25;2.25;;;;;14.22;67.45;101548.41;2092024;28;45679;-49
2021/10/26 02:40:22;;;;;;;;;3.33;3.33;;;;;14.22;67.31;101548.41;2092323;28;47482;-52
2021/10/26 02:41:23;;;;;;;;;3.00;3.00;;;;;14.22;67.48;101545.75;2092081;28;47296;-55
2021/10/26 02:42:23;;;;;;;;;3.00;3.00;;;;;14.22;67.46;101546.63;2092205;28;48125;-52
2021/10/26 02:43:25;;;;;;;;;2.00;2.00;;;;;14.21;67.17;101544.88;2091906;28;48241;-54
2021/10/26 02:44:26;;;;;;;;;2.75;2.75;;;;;14.22;67.05;101553.75;2092146;28;47487;-52
2021/10/26 02:45:29;;;;;;;;;5.00;3.33;;;;;14.22;67.19;101548.41;2092168;28;47339;-52
2021/10/26 02:46:30;;;;;;;;;4.25;4.00;;;;;14.21;67.45;101542.19;2089649;28;47344;-53
2021/10/26 02:47:31;;;;;;;;;4.00;4.00;;;;;14.21;67.16;101552.88;2087759;28;47280;-51
2021/10/26 02:48:32;;;;;;;;;4.00;4.00;;;;;14.21;67.34;101550.22;2092419;28;45259;-52
2021/10/26 02:49:32;;;;;;;;;4.00;3.67;;;;;14.21;67.34;101552.88;2091910;28;46805;-51
2021/10/26 02:50:33;;;;;;;;;4.00;4.00;;;;;14.21;67.37;101552.00;2092385;28;47404;-52
2021/10/26 02:51:34;;;;;;;;;6.00;5.00;;;;;14.21;67.35;101549.34;2085406;28;47778;-53
2021/10/26 02:52:38;;;;;;;;;4.00;3.00;;;;;14.20;67.25;101551.13;2089971;28;45067;-53
2021/10/26 02:53:38;;;;;;;;;3.00;3.00;;;;;14.21;67.02;101549.34;2091838;28;47189;-53
2021/10/26 02:54:39;;;;;;;;;3.67;3.67;;;;;14.20;67.15;101545.78;2092285;28;47165;-53
2021/10/26 02:55:40;;;;;;;;;3.25;3.25;;;;;14.20;66.93;101551.13;2092001;28;47482;-49
2021/10/26 02:56:42;;;;;;;;;3.00;3.00;;;;;14.20;66.86;101551.13;2083442;28;47411;-51
2021/10/26 02:57:42;;;;;;;;;3.25;3.00;;;;;14.20;67.03;101558.25;2083077;28;47042;-54
2021/10/26 02:58:43;;;;;;;;;5.00;5.00;;;;;14.20;67.29;101555.59;2092147;28;48170;-53
2021/10/26 02:59:44;;;;;;;;;3.67;3.67;;;;;14.19;67.30;101551.16;2083129;28;47426;-54
2021/10/26 03:00:45;;;;;;;;;2.00;2.00;;;;;14.20;67.44;101555.59;2083041;28;47381;-53
2021/10/26 03:01:46;;;;;;;;;2.75;2.25;;;;;14.20;66.93;101556.47;2092028;28;47457;-51
2021/10/26 03:02:47;;;;;;;;;1.00;1.00;;;;;14.19;67.14;101553.84;2092217;28;48182;-53
2021/10/26 03:03:47;;;;;;;;;3.33;3.33;;;;;14.19;67.38;101551.16;2082833;28;47060;-51
2021/10/26 03:04:48;;;;;;;;;2.33;2.33;;;;;14.19;67.04;101557.38;2083153;28;48394;-49
2021/10/26 03:05:48;;;;;;;;;1.67;1.33;;;;;14.20;67.22;101559.13;2083020;28;48003;-52
2021/10/26 03:06:49;;;;;;;;;3.00;3.00;;;;;14.20;67.10;101560.94;2083347;28;45395;-51
2021/10/26 03:07:49;;;;;;;;;3.00;3.00;;;;;14.19;67.18;101562.72;2091699;28;48280;-56
2021/10/26 03:08:50;;;;;;;;;3.00;3.00;;;;;14.21;67.01;101573.34;2092039;28;46901;-52
2021/10/26 03:09:50;;;;;;;;;2.00;2.00;;;;;14.20;67.29;101571.59;2091745;28;48105;-50
2021/10/26 03:10:51;;;;;;;;;3.00;3.00;;;;;14.21;67.34;101573.34;2091915;28;47216;-49
2021/10/26 03:11:52;;;;;;;;;2.00;2.00;;;;;14.20;67.30;101567.16;2091816;28;46939;-52
2021/10/26 03:12:53;;;;;;;;;3.00;3.00;;;;;14.20;67.36;101569.81;2092128;28;48536;-52
2021/10/26 03:13:53;;;;;;;;;0.00;0.00;;;;;14.20;67.13;101566.25;2091808;28;47250;-54
2021/10/26 03:14:54;;;;;;;;;2.67;2.67;;;;;14.21;67.05;101568.03;2092064;28;48045;-54
2021/10/26 03:15:54;;;;;;;;;2.33;2.33;;;;;14.20;67.10;101572.47;2082639;28;46992;-54
2021/10/26 03:16:55;;;;;;;;;3.67;3.67;;;;;14.21;67.16;101571.56;2077608;28;48382;-52
2021/10/26 03:17:56;;;;;;;;;4.33;3.00;;;;;14.21;67.25;101570.69;2074624;28;46695;-52
2021/10/26 03:18:57;;;;;;;;;5.00;3.50;;;;;14.20;67.08;101574.28;2085465;28;47331;-54
2021/10/26 03:19:57;;;;;;;;;3.00;3.00;;;;;14.20;66.93;101571.59;2091628;28;48293;-54
2021/10/26 03:20:58;;;;;;;;;3.00;3.00;;;;;14.20;67.08;101575.16;2089110;28;47524;-54
2021/10/26 03:21:58;;;;;;;;;1.00;1.00;;;;;14.19;66.88;101565.38;2083649;28;47013;-54
2021/10/26 03:22:59;;;;;;;;;4.00;3.33;;;;;14.20;67.05;101571.59;2079766;28;47538;-51
2021/10/26 03:23:59;;;;;;;;;2.67;2.67;;;;;14.19;67.20;101573.41;2083027;28;47152;-54
2021/10/26 03:25:00;;;;;;;;;3.33;3.00;;;;;14.19;67.26;101573.41;2083091;28;45362;-50
2021/10/26 03:26:00;;;;;;;;;4.33;3.33;;;;;14.18;67.14;101566.31;2091378;28;48342;-54
2021/10/26 03:27:00;;;;;;;;;4.00;3.67;;;;;14.17;67.06;101569.88;2082345;28;47094;-53
2021/10/26 03:28:01;;;;;;;;;3.67;3.67;;;;;14.17;66.96;101575.22;2076438;28;46280;-50
2021/10/26 03:29:02;;;;;;;;;3.00;3.00;;;;;14.18;67.16;101570.75;2081206;28;48008;-54
2021/10/26 03:30:06;;;;;;;;;4.25;3.50;;;;;14.18;67.03;101568.09;2090908;28;47324;-55
2021/10/26 03:31:06;;;;;;;;;3.25;3.25;;;;;14.17;66.91;101569.88;2091700;28;47504;-54
2021/10/26 03:32:07;;;;;;;;;3.33;3.33;;;;;14.16;66.80;101570.81;2092054;28;47019;-52
2021/10/26 03:33:07;;;;;;;;;3.33;3.33;;;;;14.17;66.91;101569.00;2091804;28;46429;-50
2021/10/26 03:34:08;;;;;;;;;5.00;4.00;;;;;14.16;66.90;101569.94;2083256;28;47146;-52
2021/10/26 03:35:09;;;;;;;;;5.67;5.67;;;;;14.15;67.25;101577.06;2083464;28;47208;-54
2021/10/26 03:36:09;;;;;;;;;4.00;4.00;;;;;14.14;66.81;101573.50;2083845;28;48449;-54
2021/10/26 03:37:10;;;;;;;;;5.33;4.67;;;;;14.15;67.15;101571.72;2090278;28;47286;-51
2021/10/26 03:38:11;;;;;;;;;6.75;6.50;;;;;14.16;66.95;101575.25;2091827;28;47288;-51
2021/10/26 03:39:11;;;;;;;;;5.00;5.00;;;;;14.14;67.21;101569.97;2091767;28;47200;-52
2021/10/26 03:40:13;;;;;;;;;4.00;3.00;;;;;14.13;67.30;101568.22;2086681;28;47340;-53
2021/10/26 03:41:13;;;;;;;;;4.50;4.50;;;;;14.13;67.10;101570.88;2083320;28;47324;-53
2021/10/26 03:42:14;;;;;;;;;5.00;4.00;;;;;14.13;67.02;101569.09;2074913;28;47454;-54
2021/10/26 03:43:14;;;;;;;;;4.67;4.67;;;;;14.13;67.09;101576.22;2078062;28;47366;-52
2021/10/26 03:44:15;;;;;;;;;6.00;5.00;;;;;14.13;66.91;101578.88;2083010;28;47437;-50
2021/10/26 03:45:15;;;;;;;;;5.33;4.33;;;;;14.12;66.99;101577.13;2084381;28;48122;-53
2021/10/26 03:46:16;;;;;;;;;5.00;4.00;;;;;14.11;67.20;101581.59;2086654;28;47340;-54
2021/10/26 03:47:17;;;;;;;;;5.00;5.00;;;;;14.11;66.93;101573.59;2091090;28;48195;-54
2021/10/26 03:48:19;;;;;;;;;5.50;5.50;;;;;14.12;66.90;101579.81;2083059;28;47684;-53
2021/10/26 03:49:20;;;;;;;;;6.00;6.00;;;;;14.11;67.05;101575.38;2082736;28;47527;-52
2021/10/26 03:50:21;;;;;;;;;6.33;6.33;;;;;14.09;67.12;101580.72;2083627;28;47094;-54
2021/10/26 03:51:21;;;;;;;;;6.67;5.00;;;;;14.09;67.34;101585.19;2083044;28;48161;-52
2021/10/26 03:52:21;;;;;;;;;6.67;5.00;;;;;14.08;67.35;101575.44;2083788;28;45354;-50
2021/10/26 03:53:22;;;;;;;;;6.00;5.00;;;;;14.09;67.38;101578.06;2081780;28;46386;-53
2021/10/26 03:54:22;;;;;;;;;5.00;5.00;;;;;14.08;67.24;101581.66;2074763;28;47682;-53
2021/10/26 03:55:23;;;;;;;;;5.67;5.67;;;;;14.08;67.33;101580.75;2082911;28;47403;-53
2021/10/26 03:56:24;;;;;;;;;7.00;4.67;;;;;14.07;67.32;101579.00;2085901;28;47974;-52
2021/10/26 03:57:24;;;;;;;;;5.67;5.67;;;;;14.07;67.33;101579.00;2083483;28;47089;-54
2021/10/26 03:58:25;;;;;;;;;7.00;6.33;;;;;14.06;67.13;101580.81;2083391;28;46140;-54
2021/10/26 03:59:30;;;;;;;;;7.67;6.33;;;;;14.06;67.00;101582.59;2083437;28;48044;-52
2021/10/26 04:00:31;;;;;;;;;6.25;5.50;;;;;14.06;66.96;101582.59;2083696;28;48264;-53
2021/10/26 04:01:32;;;;;;;;;7.33;6.67;;;;;14.04;67.31;101577.28;2083444;28;47500;-52
2021/10/26 04:02:39;;;;;;;;;8.50;7.75;;;;;14.05;67.09;101575.50;2083470;28;47197;-54
2021/10/26 04:03:39;;;;;;;;;6.75;6.75;;;;;14.04;67.37;101571.09;2091073;28;48513;-52
2021/10/26 04:04:40;;;;;;;;;5.67;5.67;;;;;14.04;67.18;101577.28;2098339;28;48068;-53
2021/10/26 04:06:45;;;;;;;;;5.25;5.00;;;;;14.03;67.05;101577.34;2074786;28;47106;-51
2021/10/26 04:07:56;;;;;;;;;8.75;6.25;;;;;14.03;67.28;101585.34;2066804;28;47305;-51
2021/10/26 04:09:03;;;;;;;;;7.00;7.00;;;;;14.02;67.14;101584.47;2076121;28;47335;-50
2021/10/26 04:10:13;;;;;;;;;9.25;9.00;;;;;14.01;67.11;101585.38;2077450;28;47458;-49
2021/10/26 04:11:24;;;;;;;;;7.75;7.75;;;;;14.02;67.43;101587.13;2083924;28;47553;-52
2021/10/26 04:12:25;;;;;;;;;7.00;7.00;;;;;14.01;67.34;101585.38;2091725;28;47606;-50
2021/10/26 04:13:27;;;;;;;;;7.33;7.33;;;;;14.00;67.19;101588.97;2091528;28;47444;-51
2021/10/26 04:14:27;;;;;;;;;6.50;6.50;;;;;14.00;67.40;101582.75;2091625;28;45373;-53
2021/10/26 04:15:28;;;;;;;;;8.33;8.33;;;;;13.99;67.21;101586.34;2091502;28;47071;-54
2021/10/26 04:16:29;;;;;;;;;7.67;7.67;;;;;14.00;67.14;101585.41;2091066;28;47136;-53
2021/10/26 04:17:29;;;;;;;;;7.00;7.00;;;;;13.99;67.27;101589.88;2090202;28;47404;-52
2021/10/26 04:18:30;;;;;;;;;7.33;6.33;;;;;13.98;67.06;101590.78;2087311;28;47444;-52
2021/10/26 04:19:30;;;;;;;;;8.25;7.00;;;;;13.98;67.06;101588.13;2091489;28;45361;-53
2021/10/26 04:20:30;;;;;;;;;10.00;8.75;;;;;13.99;67.19;101586.34;2091484;28;48280;-52
2021/10/26 04:21:31;;;;;;;;;6.25;6.25;;;;;13.98;67.00;101584.56;2081915;28;47557;-53
2021/10/26 04:22:31;;;;;;;;;11.50;11.50;;;;;13.97;67.02;101590.78;2074067;28;48216;-52
2021/10/26 04:23:34;;;;;;;;;9.00;7.75;;;;;13.96;66.92;101587.25;2079718;28;48294;-52
2021/10/26 04:24:34;;;;;;;;;8.00;8.00;;;;;13.95;67.11;101592.63;2091557;28;48329;-52
2021/10/26 04:25:35;;;;;;;;;7.00;6.67;;;;;13.95;67.15;101592.63;2082450;28;48253;-52
2021/10/26 04:26:35;;;;;;;;;9.00;9.00;;;;;13.94;67.12;101589.06;2082938;28;47427;-53
2021/10/26 04:27:36;;;;;;;;;9.00;8.00;;;;;13.94;66.90;101591.75;2082519;28;48000;-53
2021/10/26 04:28:36;;;;;;;;;9.50;9.50;;;;;13.94;67.08;101593.53;2082630;28;48331;-51
2021/10/26 04:29:38;;;;;;;;;9.50;9.50;;;;;13.94;67.30;101594.41;2091422;28;47455;-48
2021/10/26 04:30:39;;;;;;;;;8.60;8.40;;;;;13.93;67.19;101597.13;2091484;28;48197;-53
2021/10/26 04:31:40;;;;;;;;;10.50;10.00;;;;;13.93;67.05;101591.78;2091426;28;47973;-52
2021/10/26 04:32:40;;;;;;;;;10.33;10.00;;;;;13.93;67.25;101600.66;2091595;28;47156;-52
2021/10/26 04:33:41;;;;;;;;;8.25;8.00;;;;;13.93;67.25;101602.47;2091278;28;46194;-52
2021/10/26 04:34:41;;;;;;;;;10.50;9.00;;;;;13.92;67.05;101601.59;2095803;28;46207;-53
2021/10/26 04:35:42;;;;;;;;;8.50;8.50;;;;;13.92;67.22;101604.25;2092986;28;47313;-53
2021/10/26 04:36:43;;;;;;;;;8.25;8.25;;;;;13.91;66.99;101605.16;2091475;28;47171;-54
2021/10/26 04:37:43;;;;;;;;;9.00;9.00;;;;;13.91;67.26;101604.28;2091425;28;45419;-52
2021/10/26 04:38:44;;;;;;;;;9.33;9.33;;;;;13.90;67.33;101605.19;2082319;28;47207;-54
2021/10/26 04:39:45;;;;;;;;;9.67;7.67;;;;;13.90;67.17;101606.06;2082226;28;47232;-53
2021/10/26 04:40:47;;;;;;;;;11.20;10.40;;;;;13.89;67.09;101609.66;2091496;28;47319;-53
2021/10/26 04:41:48;;;;;;;;;9.25;8.25;;;;;13.88;67.29;101607.03;2091172;28;48530;-53
2021/10/26 04:42:49;;;;;;;;;9.33;8.33;;;;;13.88;66.98;101607.03;2091467;28;47451;-55
2021/10/26 04:43:50;;;;;;;;;8.75;8.00;;;;;13.87;67.16;101603.47;2091115;28;48206;-53